sensor_id;sensor_type;location;lat;lon;timestamp;temperature;humidity
11140;DHT22;5624;49.388;11.350;2024-03-23T00:54:37;7.20;98.40
11140;DHT22;5624;49.388;11.350;2024-03-23T00:57:03;7.10;98.60
11140;DHT22;5624;49.388;11.350;2024-03-23T00:59:28;7.00;98.90
11140;DHT22;5624;49.388;11.350;2024-03-23T01:01:54;7.00;99.30
11140;DHT22;5624;49.388;11.350;2024-03-23T01:04:20;7.00;99.10
11140;DHT22;5624;49.388;11.350;2024-03-23T01:06:46;6.90;99.60
11140;DHT22;5624;49.388;11.350;2024-03-23T01:09:11;6.90;99.70
11140;DHT22;5624;49.388;11.350;2024-03-23T01:11:37;6.80;99.90
11140;DHT22;5624;49.388;11.350;2024-03-23T01:14:02;6.80;99.90
11140;DHT22;5624;49.388;11.350;2024-03-23T01:16:28;6.90;99.90
11140;DHT22;5624;49.388;11.350;2024-03-23T01:18:53;7.00;99.90
11140;DHT22;5624;49.388;11.350;2024-03-23T01:21:19;7.00;99.90
11140;DHT22;5624;49.388;11.350;2024-03-23T01:23:44;7.00;99.90
11140;DHT22;5624;49.388;11.350;2024-03-23T01:26:10;6.90;99.90
11140;DHT22;5624;49.388;11.350;2024-03-23T01:28:36;6.80;99.90
11140;DHT22;5624;49.388;11.350;2024-03-23T01:31:02;6.70;99.90
11140;DHT22;5624;49.388;11.350;2024-03-23T01:33:27;6.60;99.90
11140;DHT22;5624;49.388;11.350;2024-03-23T01:35:53;6.50;99.90
11140;DHT22;5624;49.388;11.350;2024-03-23T01:38:18;6.50;99.90
11140;DHT22;5624;49.388;11.350;2024-03-23T01:40:44;6.40;99.90
11140;DHT22;5624;49.388;11.350;2024-03-23T01:43:09;6.30;99.90
11140;DHT22;5624;49.388;11.350;2024-03-23T01:45:35;6.30;99.90
11140;DHT22;5624;49.388;11.350;2024-03-23T01:48:01;6.30;99.90
11140;DHT22;5624;49.388;11.350;2024-03-23T01:50:27;6.30;99.90
11140;DHT22;5624;49.388;11.350;2024-03-23T01:52:53;6.30;99.90
11140;DHT22;5624;49.388;11.350;2024-03-23T01:55:19;6.40;99.90
11140;DHT22;5624;49.388;11.350;2024-03-23T01:57:45;6.60;99.90
11140;DHT22;5624;49.388;11.350;2024-03-23T02:00:11;6.80;99.90
11140;DHT22;5624;49.388;11.350;2024-03-23T02:02:42;6.90;99.90
11140;DHT22;5624;49.388;11.350;2024-03-23T02:05:07;7.10;99.90
11140;DHT22;5624;49.388;11.350;2024-03-23T02:07:33;7.20;99.90
11140;DHT22;5624;49.388;11.350;2024-03-23T02:10:00;7.30;99.90
11140;DHT22;5624;49.388;11.350;2024-03-23T02:12:26;7.50;99.90
11140;DHT22;5624;49.388;11.350;2024-03-23T02:14:51;7.50;99.70
11140;DHT22;5624;49.388;11.350;2024-03-23T02:17:17;7.60;98.30
11140;DHT22;5624;49.388;11.350;2024-03-23T02:19:42;7.70;98.10
11140;DHT22;5624;49.388;11.350;2024-03-23T02:22:08;7.80;97.90
11140;DHT22;5624;49.388;11.350;2024-03-23T02:24:36;7.90;97.60
11140;DHT22;5624;49.388;11.350;2024-03-23T02:27:02;8.10;96.80
11140;DHT22;5624;49.388;11.350;2024-03-23T02:29:28;8.20;95.10
11140;DHT22;5624;49.388;11.350;2024-03-23T02:31:53;8.30;94.20
11140;DHT22;5624;49.388;11.350;2024-03-23T02:34:19;8.40;93.20
11140;DHT22;5624;49.388;11.350;2024-03-23T02:36:44;8.40;93.20
11140;DHT22;5624;49.388;11.350;2024-03-23T02:39:10;8.50;93.30
11140;DHT22;5624;49.388;11.350;2024-03-23T02:41:36;8.60;92.60
11140;DHT22;5624;49.388;11.350;2024-03-23T02:44:02;8.70;92.00
11140;DHT22;5624;49.388;11.350;2024-03-23T02:46:27;8.80;91.40
11140;DHT22;5624;49.388;11.350;2024-03-23T02:48:53;8.80;91.10
11140;DHT22;5624;49.388;11.350;2024-03-23T02:51:18;8.80;91.20
11140;DHT22;5624;49.388;11.350;2024-03-23T02:53:44;8.80;90.80
11140;DHT22;5624;49.388;11.350;2024-03-23T02:56:09;8.80;91.30
11140;DHT22;5624;49.388;11.350;2024-03-23T02:58:41;8.80;90.70
11140;DHT22;5624;49.388;11.350;2024-03-23T03:01:06;8.80;90.90
11140;DHT22;5624;49.388;11.350;2024-03-23T03:03:32;8.90;90.50
11140;DHT22;5624;49.388;11.350;2024-03-23T03:05:57;8.90;89.60
11140;DHT22;5624;49.388;11.350;2024-03-23T03:08:23;8.90;90.20
11140;DHT22;5624;49.388;11.350;2024-03-23T03:10:48;8.90;90.60
11140;DHT22;5624;49.388;11.350;2024-03-23T03:13:14;8.90;91.40
11140;DHT22;5624;49.388;11.350;2024-03-23T03:15:42;8.90;90.40
11140;DHT22;5624;49.388;11.350;2024-03-23T03:18:08;9.00;90.10
11140;DHT22;5624;49.388;11.350;2024-03-23T03:20:33;9.10;89.30
11140;DHT22;5624;49.388;11.350;2024-03-23T03:23:00;9.00;89.00
11140;DHT22;5624;49.388;11.350;2024-03-23T03:25:25;8.90;90.30
11140;DHT22;5624;49.388;11.350;2024-03-23T03:27:51;8.80;90.80
11140;DHT22;5624;49.388;11.350;2024-03-23T03:30:16;8.70;91.50
11140;DHT22;5624;49.388;11.350;2024-03-23T03:32:42;8.80;91.60
11140;DHT22;5624;49.388;11.350;2024-03-23T03:35:08;8.90;91.30
11140;DHT22;5624;49.388;11.350;2024-03-23T03:37:34;8.90;90.80
11140;DHT22;5624;49.388;11.350;2024-03-23T03:39:59;8.90;90.90
11140;DHT22;5624;49.388;11.350;2024-03-23T03:42:25;8.90;90.90
11140;DHT22;5624;49.388;11.350;2024-03-23T03:44:50;8.90;91.00
11140;DHT22;5624;49.388;11.350;2024-03-23T03:47:17;8.90;90.30
11140;DHT22;5624;49.388;11.350;2024-03-23T03:49:42;8.80;90.60
11140;DHT22;5624;49.388;11.350;2024-03-23T03:52:08;8.80;91.10
11140;DHT22;5624;49.388;11.350;2024-03-23T03:54:33;8.90;91.00
11140;DHT22;5624;49.388;11.350;2024-03-23T03:56:59;8.90;90.40
11140;DHT22;5624;49.388;11.350;2024-03-23T03:59:24;8.80;90.60
11140;DHT22;5624;49.388;11.350;2024-03-23T04:01:50;8.80;91.10
11140;DHT22;5624;49.388;11.350;2024-03-23T04:04:15;8.80;91.10
11140;DHT22;5624;49.388;11.350;2024-03-23T04:06:43;8.80;90.60
11140;DHT22;5624;49.388;11.350;2024-03-23T04:09:09;8.80;90.70
11140;DHT22;5624;49.388;11.350;2024-03-23T04:11:35;8.90;89.80
11140;DHT22;5624;49.388;11.350;2024-03-23T04:14:01;9.00;89.40
11140;DHT22;5624;49.388;11.350;2024-03-23T04:16:27;9.00;89.40
11140;DHT22;5624;49.388;11.350;2024-03-23T04:18:53;9.00;89.30
11140;DHT22;5624;49.388;11.350;2024-03-23T04:21:19;9.10;89.30
11140;DHT22;5624;49.388;11.350;2024-03-23T04:23:45;9.10;88.90
11140;DHT22;5624;49.388;11.350;2024-03-23T04:26:11;9.10;88.80
11140;DHT22;5624;49.388;11.350;2024-03-23T04:28:36;9.20;88.00
11140;DHT22;5624;49.388;11.350;2024-03-23T04:31:05;9.20;87.60
11140;DHT22;5624;49.388;11.350;2024-03-23T04:33:31;9.20;87.80
11140;DHT22;5624;49.388;11.350;2024-03-23T04:35:56;9.20;87.80
11140;DHT22;5624;49.388;11.350;2024-03-23T04:38:22;9.10;87.80
11140;DHT22;5624;49.388;11.350;2024-03-23T04:40:55;9.10;87.60
11140;DHT22;5624;49.388;11.350;2024-03-23T04:43:20;9.00;87.70
11140;DHT22;5624;49.388;11.350;2024-03-23T04:45:46;9.00;87.80
11140;DHT22;5624;49.388;11.350;2024-03-23T04:48:11;9.00;87.90
11140;DHT22;5624;49.388;11.350;2024-03-23T04:50:37;8.90;87.60
11140;DHT22;5624;49.388;11.350;2024-03-23T04:53:02;9.00;87.60
11140;DHT22;5624;49.388;11.350;2024-03-23T04:55:28;8.90;87.80
11140;DHT22;5624;49.388;11.350;2024-03-23T04:57:53;8.90;88.00
11140;DHT22;5624;49.388;11.350;2024-03-23T05:00:19;8.90;88.20
11140;DHT22;5624;49.388;11.350;2024-03-23T05:02:45;8.90;88.00
11140;DHT22;5624;49.388;11.350;2024-03-23T05:05:11;8.90;88.30
11140;DHT22;5624;49.388;11.350;2024-03-23T05:07:36;8.90;88.40
11140;DHT22;5624;49.388;11.350;2024-03-23T05:10:02;8.90;88.10
11140;DHT22;5624;49.388;11.350;2024-03-23T05:12:28;8.90;88.40
11140;DHT22;5624;49.388;11.350;2024-03-23T05:14:54;9.00;88.30
11140;DHT22;5624;49.388;11.350;2024-03-23T05:17:19;9.00;88.00
11140;DHT22;5624;49.388;11.350;2024-03-23T05:19:45;9.00;88.40
11140;DHT22;5624;49.388;11.350;2024-03-23T05:22:10;9.00;88.10
11140;DHT22;5624;49.388;11.350;2024-03-23T05:24:36;9.00;88.50
11140;DHT22;5624;49.388;11.350;2024-03-23T05:27:01;9.00;88.40
11140;DHT22;5624;49.388;11.350;2024-03-23T05:29:27;9.10;88.60
11140;DHT22;5624;49.388;11.350;2024-03-23T05:31:54;9.10;88.40
11140;DHT22;5624;49.388;11.350;2024-03-23T05:34:22;9.10;88.80
11140;DHT22;5624;49.388;11.350;2024-03-23T05:36:47;9.20;88.50
11140;DHT22;5624;49.388;11.350;2024-03-23T05:39:14;9.20;88.10
11140;DHT22;5624;49.388;11.350;2024-03-23T05:41:42;9.30;87.90
11140;DHT22;5624;49.388;11.350;2024-03-23T05:44:07;9.40;87.70
11140;DHT22;5624;49.388;11.350;2024-03-23T05:46:33;9.40;87.80
11140;DHT22;5624;49.388;11.350;2024-03-23T05:49:01;9.50;87.70
11140;DHT22;5624;49.388;11.350;2024-03-23T05:51:27;9.60;87.60
11140;DHT22;5624;49.388;11.350;2024-03-23T05:53:53;9.70;87.30
11140;DHT22;5624;49.388;11.350;2024-03-23T05:56:19;10.00;86.50
11140;DHT22;5624;49.388;11.350;2024-03-23T05:58:45;10.80;83.10
11140;DHT22;5624;49.388;11.350;2024-03-23T06:01:11;11.70;80.10
11140;DHT22;5624;49.388;11.350;2024-03-23T06:03:38;12.60;75.10
11140;DHT22;5624;49.388;11.350;2024-03-23T06:06:03;13.20;72.10
11140;DHT22;5624;49.388;11.350;2024-03-23T06:08:29;13.90;69.00
11140;DHT22;5624;49.388;11.350;2024-03-23T06:10:55;14.20;66.90
11140;DHT22;5624;49.388;11.350;2024-03-23T06:13:21;14.30;65.80
11140;DHT22;5624;49.388;11.350;2024-03-23T06:15:50;13.50;67.90
11140;DHT22;5624;49.388;11.350;2024-03-23T06:18:15;12.80;70.90
11140;DHT22;5624;49.388;11.350;2024-03-23T06:20:41;12.10;73.80
11140;DHT22;5624;49.388;11.350;2024-03-23T06:23:06;11.60;76.00
11140;DHT22;5624;49.388;11.350;2024-03-23T06:25:32;11.30;77.70
11140;DHT22;5624;49.388;11.350;2024-03-23T06:27:58;11.10;78.70
11140;DHT22;5624;49.388;11.350;2024-03-23T06:30:24;10.80;80.30
11140;DHT22;5624;49.388;11.350;2024-03-23T06:32:49;10.80;80.90
11140;DHT22;5624;49.388;11.350;2024-03-23T06:35:15;10.70;82.70
11140;DHT22;5624;49.388;11.350;2024-03-23T06:37:40;10.70;84.40
11140;DHT22;5624;49.388;11.350;2024-03-23T06:40:07;10.50;86.60
11140;DHT22;5624;49.388;11.350;2024-03-23T06:42:35;10.40;87.50
11140;DHT22;5624;49.388;11.350;2024-03-23T06:45:01;10.30;88.90
11140;DHT22;5624;49.388;11.350;2024-03-23T06:47:27;10.20;91.10
11140;DHT22;5624;49.388;11.350;2024-03-23T06:49:52;10.00;92.20
11140;DHT22;5624;49.388;11.350;2024-03-23T06:52:18;10.00;92.40
11140;DHT22;5624;49.388;11.350;2024-03-23T06:54:43;9.90;94.10
11140;DHT22;5624;49.388;11.350;2024-03-23T06:57:10;9.80;95.50
11140;DHT22;5624;49.388;11.350;2024-03-23T06:59:37;9.70;96.60
11140;DHT22;5624;49.388;11.350;2024-03-23T07:02:04;9.70;96.90
11140;DHT22;5624;49.388;11.350;2024-03-23T07:04:30;9.70;96.80
11140;DHT22;5624;49.388;11.350;2024-03-23T07:06:55;9.60;97.70
11140;DHT22;5624;49.388;11.350;2024-03-23T07:09:21;9.60;98.20
11140;DHT22;5624;49.388;11.350;2024-03-23T07:11:53;9.60;99.30
11140;DHT22;5624;49.388;11.350;2024-03-23T07:14:18;9.50;99.90
11140;DHT22;5624;49.388;11.350;2024-03-23T07:16:44;9.50;99.50
11140;DHT22;5624;49.388;11.350;2024-03-23T07:19:09;9.50;99.90
11140;DHT22;5624;49.388;11.350;2024-03-23T07:21:35;9.50;99.90
11140;DHT22;5624;49.388;11.350;2024-03-23T07:24:00;9.40;99.90
11140;DHT22;5624;49.388;11.350;2024-03-23T07:26:26;9.40;99.90
11140;DHT22;5624;49.388;11.350;2024-03-23T07:28:52;9.30;99.90
11140;DHT22;5624;49.388;11.350;2024-03-23T07:31:18;9.20;99.90
11140;DHT22;5624;49.388;11.350;2024-03-23T07:33:47;9.20;99.90
11140;DHT22;5624;49.388;11.350;2024-03-23T07:36:12;9.20;99.90
11140;DHT22;5624;49.388;11.350;2024-03-23T07:38:41;9.10;99.90
11140;DHT22;5624;49.388;11.350;2024-03-23T07:41:09;9.10;99.90
11140;DHT22;5624;49.388;11.350;2024-03-23T07:43:35;9.10;99.90
11140;DHT22;5624;49.388;11.350;2024-03-23T07:46:01;9.10;99.90
11140;DHT22;5624;49.388;11.350;2024-03-23T07:48:28;9.00;99.90
11140;DHT22;5624;49.388;11.350;2024-03-23T07:53:27;9.00;99.90
11140;DHT22;5624;49.388;11.350;2024-03-23T07:55:57;9.00;99.90
11140;DHT22;5624;49.388;11.350;2024-03-23T07:58:23;9.00;99.90
11140;DHT22;5624;49.388;11.350;2024-03-23T08:00:48;9.00;99.90
11140;DHT22;5624;49.388;11.350;2024-03-23T08:03:14;9.00;99.90
11140;DHT22;5624;49.388;11.350;2024-03-23T08:05:39;9.00;99.90
11140;DHT22;5624;49.388;11.350;2024-03-23T08:08:05;8.90;99.90
11140;DHT22;5624;49.388;11.350;2024-03-23T08:10:31;8.90;99.90
11140;DHT22;5624;49.388;11.350;2024-03-23T08:12:56;9.00;99.90
11140;DHT22;5624;49.388;11.350;2024-03-23T08:15:22;9.00;99.90
11140;DHT22;5624;49.388;11.350;2024-03-23T08:17:47;9.00;99.90
11140;DHT22;5624;49.388;11.350;2024-03-23T08:20:13;9.00;99.90
11140;DHT22;5624;49.388;11.350;2024-03-23T08:22:38;9.00;99.90
11140;DHT22;5624;49.388;11.350;2024-03-23T08:25:04;9.30;99.90
11140;DHT22;5624;49.388;11.350;2024-03-23T08:27:30;9.50;99.90
11140;DHT22;5624;49.388;11.350;2024-03-23T08:29:55;9.60;99.90
11140;DHT22;5624;49.388;11.350;2024-03-23T08:32:21;9.70;99.90
11140;DHT22;5624;49.388;11.350;2024-03-23T08:34:47;9.70;99.90
11140;DHT22;5624;49.388;11.350;2024-03-23T08:37:12;9.70;99.70
11140;DHT22;5624;49.388;11.350;2024-03-23T08:39:38;9.60;99.90
11140;DHT22;5624;49.388;11.350;2024-03-23T08:42:03;9.60;99.90
11140;DHT22;5624;49.388;11.350;2024-03-23T08:44:30;9.40;99.90
11140;DHT22;5624;49.388;11.350;2024-03-23T08:46:58;9.20;99.90
11140;DHT22;5624;49.388;11.350;2024-03-23T08:49:24;8.50;99.90
11140;DHT22;5624;49.388;11.350;2024-03-23T08:51:49;7.80;99.90
11140;DHT22;5624;49.388;11.350;2024-03-23T08:54:15;7.50;99.90
11140;DHT22;5624;49.388;11.350;2024-03-23T08:56:40;7.40;99.90
11140;DHT22;5624;49.388;11.350;2024-03-23T08:59:06;7.40;99.90
11140;DHT22;5624;49.388;11.350;2024-03-23T09:01:32;8.10;99.90
11140;DHT22;5624;49.388;11.350;2024-03-23T09:03:57;9.20;99.90
11140;DHT22;5624;49.388;11.350;2024-03-23T09:06:23;9.40;96.70
11140;DHT22;5624;49.388;11.350;2024-03-23T09:08:48;9.30;95.30
11140;DHT22;5624;49.388;11.350;2024-03-23T09:11:14;9.60;92.00
11140;DHT22;5624;49.388;11.350;2024-03-23T09:13:40;10.40;90.20
11140;DHT22;5624;49.388;11.350;2024-03-23T09:16:07;10.00;90.00
11140;DHT22;5624;49.388;11.350;2024-03-23T09:18:33;9.70;88.70
11140;DHT22;5624;49.388;11.350;2024-03-23T09:21:00;9.40;90.70
11140;DHT22;5624;49.388;11.350;2024-03-23T09:23:26;9.20;89.70
11140;DHT22;5624;49.388;11.350;2024-03-23T09:25:51;9.30;88.70
11140;DHT22;5624;49.388;11.350;2024-03-23T09:28:17;9.00;86.70
11140;DHT22;5624;49.388;11.350;2024-03-23T09:30:43;8.80;86.60
11140;DHT22;5624;49.388;11.350;2024-03-23T09:33:09;8.60;87.50
11140;DHT22;5624;49.388;11.350;2024-03-23T09:35:42;8.30;89.00
11140;DHT22;5624;49.388;11.350;2024-03-23T09:38:08;8.10;91.10
11140;DHT22;5624;49.388;11.350;2024-03-23T09:40:35;8.00;90.40
11140;DHT22;5624;49.388;11.350;2024-03-23T09:43:01;7.80;92.00
11140;DHT22;5624;49.388;11.350;2024-03-23T09:45:29;7.80;91.70
11140;DHT22;5624;49.388;11.350;2024-03-23T09:47:55;7.80;92.70
11140;DHT22;5624;49.388;11.350;2024-03-23T09:50:22;8.00;91.30
11140;DHT22;5624;49.388;11.350;2024-03-23T09:52:48;8.30;90.80
11140;DHT22;5624;49.388;11.350;2024-03-23T09:55:14;8.20;89.00
11140;DHT22;5624;49.388;11.350;2024-03-23T09:57:40;8.10;88.50
11140;DHT22;5624;49.388;11.350;2024-03-23T10:00:06;8.00;88.50
11140;DHT22;5624;49.388;11.350;2024-03-23T10:02:33;7.80;88.60
11140;DHT22;5624;49.388;11.350;2024-03-23T10:04:59;7.60;89.20
11140;DHT22;5624;49.388;11.350;2024-03-23T10:07:25;7.60;88.20
11140;DHT22;5624;49.388;11.350;2024-03-23T10:09:53;8.50;84.60
11140;DHT22;5624;49.388;11.350;2024-03-23T10:12:19;8.80;83.10
11140;DHT22;5624;49.388;11.350;2024-03-23T10:14:45;9.10;78.70
11140;DHT22;5624;49.388;11.350;2024-03-23T10:17:21;9.10;77.30
11140;DHT22;5624;49.388;11.350;2024-03-23T10:19:52;9.10;77.20
11140;DHT22;5624;49.388;11.350;2024-03-23T10:22:22;9.10;75.60
11140;DHT22;5624;49.388;11.350;2024-03-23T10:24:48;8.90;75.20
11140;DHT22;5624;49.388;11.350;2024-03-23T10:27:20;8.60;76.40
11140;DHT22;5624;49.388;11.350;2024-03-23T10:29:46;8.40;77.80
11140;DHT22;5624;49.388;11.350;2024-03-23T10:32:13;8.10;77.40
11140;DHT22;5624;49.388;11.350;2024-03-23T10:34:39;7.80;79.90
11140;DHT22;5624;49.388;11.350;2024-03-23T10:37:06;7.80;79.40
11140;DHT22;5624;49.388;11.350;2024-03-23T10:39:33;7.70;78.70
11140;DHT22;5624;49.388;11.350;2024-03-23T10:42:04;7.60;79.20
11140;DHT22;5624;49.388;11.350;2024-03-23T10:44:30;7.60;80.20
11140;DHT22;5624;49.388;11.350;2024-03-23T10:47:01;7.70;81.50
11140;DHT22;5624;49.388;11.350;2024-03-23T10:49:29;8.10;79.00
11140;DHT22;5624;49.388;11.350;2024-03-23T10:51:57;8.30;78.80
11140;DHT22;5624;49.388;11.350;2024-03-23T10:54:24;8.50;77.50
11140;DHT22;5624;49.388;11.350;2024-03-23T10:59:37;9.00;74.30
11140;DHT22;5624;49.388;11.350;2024-03-23T11:02:04;9.10;73.20
11140;DHT22;5624;49.388;11.350;2024-03-23T11:04:36;8.80;72.20
11140;DHT22;5624;49.388;11.350;2024-03-23T11:09:59;9.10;72.60
11140;DHT22;5624;49.388;11.350;2024-03-23T11:12:25;8.90;71.40
11140;DHT22;5624;49.388;11.350;2024-03-23T11:17:25;8.80;73.50
11140;DHT22;5624;49.388;11.350;2024-03-23T11:19:55;9.20;71.90
11140;DHT22;5624;49.388;11.350;2024-03-23T11:22:46;9.20;71.10
11140;DHT22;5624;49.388;11.350;2024-03-23T11:25:26;9.30;71.80
11140;DHT22;5624;49.388;11.350;2024-03-23T11:28:09;9.10;70.50
11140;DHT22;5624;49.388;11.350;2024-03-23T11:30:35;8.70;72.00
11140;DHT22;5624;49.388;11.350;2024-03-23T11:33:02;8.50;71.70
11140;DHT22;5624;49.388;11.350;2024-03-23T11:35:33;8.50;72.70
11140;DHT22;5624;49.388;11.350;2024-03-23T11:38:11;8.40;72.80
11140;DHT22;5624;49.388;11.350;2024-03-23T11:40:42;8.40;73.20
11140;DHT22;5624;49.388;11.350;2024-03-23T11:43:09;8.70;72.80
11140;DHT22;5624;49.388;11.350;2024-03-23T11:45:44;9.10;70.50
11140;DHT22;5624;49.388;11.350;2024-03-23T11:48:14;9.20;69.70
11140;DHT22;5624;49.388;11.350;2024-03-23T11:50:41;9.00;67.20
11140;DHT22;5624;49.388;11.350;2024-03-23T11:53:21;9.10;64.80
11140;DHT22;5624;49.388;11.350;2024-03-23T11:55:59;9.10;64.60
11140;DHT22;5624;49.388;11.350;2024-03-23T11:58:26;8.90;64.00
11140;DHT22;5624;49.388;11.350;2024-03-23T12:00:59;8.70;63.60
11140;DHT22;5624;49.388;11.350;2024-03-23T12:03:29;8.60;65.00
11140;DHT22;5624;49.388;11.350;2024-03-23T12:05:56;8.80;63.50
11140;DHT22;5624;49.388;11.350;2024-03-23T12:08:25;9.50;64.90
11140;DHT22;5624;49.388;11.350;2024-03-23T12:11:14;10.00;60.60
11140;DHT22;5624;49.388;11.350;2024-03-23T12:13:41;10.20;58.70
11140;DHT22;5624;49.388;11.350;2024-03-23T12:16:19;10.30;58.60
11140;DHT22;5624;49.388;11.350;2024-03-23T12:18:47;10.30;55.90
11140;DHT22;5624;49.388;11.350;2024-03-23T12:21:13;10.30;55.80
11140;DHT22;5624;49.388;11.350;2024-03-23T12:23:42;10.30;54.80
11140;DHT22;5624;49.388;11.350;2024-03-23T12:26:10;10.80;55.10
11140;DHT22;5624;49.388;11.350;2024-03-23T12:28:36;11.10;52.90
11140;DHT22;5624;49.388;11.350;2024-03-23T12:31:03;11.30;49.80
11140;DHT22;5624;49.388;11.350;2024-03-23T12:33:28;11.40;51.60
11140;DHT22;5624;49.388;11.350;2024-03-23T12:35:54;11.50;51.80
11140;DHT22;5624;49.388;11.350;2024-03-23T12:38:19;11.30;48.30
11140;DHT22;5624;49.388;11.350;2024-03-23T12:40:51;10.70;48.60
11140;DHT22;5624;49.388;11.350;2024-03-23T12:43:17;10.10;50.40
11140;DHT22;5624;49.388;11.350;2024-03-23T12:45:49;9.90;52.80
11140;DHT22;5624;49.388;11.350;2024-03-23T12:48:15;10.10;52.80
11140;DHT22;5624;49.388;11.350;2024-03-23T12:50:41;10.00;52.00
11140;DHT22;5624;49.388;11.350;2024-03-23T12:53:06;10.00;53.80
11140;DHT22;5624;49.388;11.350;2024-03-23T12:55:34;10.20;53.70
11140;DHT22;5624;49.388;11.350;2024-03-23T12:58:00;10.30;52.70
11140;DHT22;5624;49.388;11.350;2024-03-23T13:00:25;10.00;52.80
11140;DHT22;5624;49.388;11.350;2024-03-23T13:02:51;10.30;51.60
11140;DHT22;5624;49.388;11.350;2024-03-23T13:05:16;10.50;50.10
11140;DHT22;5624;49.388;11.350;2024-03-23T13:07:42;10.50;49.90
11140;DHT22;5624;49.388;11.350;2024-03-23T13:10:07;10.60;49.30
11140;DHT22;5624;49.388;11.350;2024-03-23T13:12:34;10.10;48.80
11140;DHT22;5624;49.388;11.350;2024-03-23T13:15:00;10.50;49.30
11140;DHT22;5624;49.388;11.350;2024-03-23T13:17:26;10.60;47.00
11140;DHT22;5624;49.388;11.350;2024-03-23T13:19:55;10.50;46.80
11140;DHT22;5624;49.388;11.350;2024-03-23T13:22:22;10.40;47.90
11140;DHT22;5624;49.388;11.350;2024-03-23T13:24:47;10.30;48.00
11140;DHT22;5624;49.388;11.350;2024-03-23T13:27:13;10.40;48.20
11140;DHT22;5624;49.388;11.350;2024-03-23T13:29:38;10.50;48.40
11140;DHT22;5624;49.388;11.350;2024-03-23T13:32:04;10.50;49.50
11140;DHT22;5624;49.388;11.350;2024-03-23T13:34:30;10.70;48.50
11140;DHT22;5624;49.388;11.350;2024-03-23T13:36:56;10.20;47.50
11140;DHT22;5624;49.388;11.350;2024-03-23T13:39:23;9.80;49.90
11140;DHT22;5624;49.388;11.350;2024-03-23T13:41:49;9.60;50.20
11140;DHT22;5624;49.388;11.350;2024-03-23T13:44:15;9.20;50.20
11140;DHT22;5624;49.388;11.350;2024-03-23T13:46:42;9.00;51.30
11140;DHT22;5624;49.388;11.350;2024-03-23T13:49:28;9.00;52.40
11140;DHT22;5624;49.388;11.350;2024-03-23T13:51:55;9.10;52.10
11140;DHT22;5624;49.388;11.350;2024-03-23T13:54:21;9.30;51.10
11140;DHT22;5624;49.388;11.350;2024-03-23T13:56:54;9.50;51.20
11140;DHT22;5624;49.388;11.350;2024-03-23T13:59:23;9.50;50.90
11140;DHT22;5624;49.388;11.350;2024-03-23T14:01:49;9.50;50.90
11140;DHT22;5624;49.388;11.350;2024-03-23T14:04:16;9.50;51.90
11140;DHT22;5624;49.388;11.350;2024-03-23T14:06:42;9.60;50.20
11140;DHT22;5624;49.388;11.350;2024-03-23T14:09:08;9.70;52.00
11140;DHT22;5624;49.388;11.350;2024-03-23T14:11:36;10.10;51.70
11140;DHT22;5624;49.388;11.350;2024-03-23T14:14:03;10.20;49.10
11140;DHT22;5624;49.388;11.350;2024-03-23T14:16:30;10.40;48.60
11140;DHT22;5624;49.388;11.350;2024-03-23T14:18:56;10.40;48.20
11140;DHT22;5624;49.388;11.350;2024-03-23T14:21:22;10.20;49.40
11140;DHT22;5624;49.388;11.350;2024-03-23T14:23:48;9.90;48.60
11140;DHT22;5624;49.388;11.350;2024-03-23T14:26:13;9.80;49.50
11140;DHT22;5624;49.388;11.350;2024-03-23T14:28:39;10.00;50.40
11140;DHT22;5624;49.388;11.350;2024-03-23T14:31:05;10.20;47.80
11140;DHT22;5624;49.388;11.350;2024-03-23T14:33:36;10.30;47.20
11140;DHT22;5624;49.388;11.350;2024-03-23T14:36:03;10.60;47.60
11140;DHT22;5624;49.388;11.350;2024-03-23T14:38:29;10.70;46.30
11140;DHT22;5624;49.388;11.350;2024-03-23T14:41:01;10.80;45.20
11140;DHT22;5624;49.388;11.350;2024-03-23T14:43:28;10.70;44.70
11140;DHT22;5624;49.388;11.350;2024-03-23T14:48:37;10.60;44.30
11140;DHT22;5624;49.388;11.350;2024-03-23T14:51:03;10.70;44.50
11140;DHT22;5624;49.388;11.350;2024-03-23T14:53:34;10.70;44.80
11140;DHT22;5624;49.388;11.350;2024-03-23T14:56:00;10.60;42.90
11140;DHT22;5624;49.388;11.350;2024-03-23T14:58:26;10.40;43.10
11140;DHT22;5624;49.388;11.350;2024-03-23T15:00:52;10.30;44.20
11140;DHT22;5624;49.388;11.350;2024-03-23T15:03:18;10.20;45.80
11140;DHT22;5624;49.388;11.350;2024-03-23T15:05:57;10.00;46.30
11140;DHT22;5624;49.388;11.350;2024-03-23T15:08:23;9.90;46.70
11140;DHT22;5624;49.388;11.350;2024-03-23T15:10:49;9.80;47.40
11140;DHT22;5624;49.388;11.350;2024-03-23T15:13:15;9.60;47.80
11140;DHT22;5624;49.388;11.350;2024-03-23T15:15:41;9.50;49.10
11140;DHT22;5624;49.388;11.350;2024-03-23T15:18:12;9.40;48.30
11140;DHT22;5624;49.388;11.350;2024-03-23T15:20:39;9.30;49.70
11140;DHT22;5624;49.388;11.350;2024-03-23T15:23:04;9.30;50.00
11140;DHT22;5624;49.388;11.350;2024-03-23T15:25:30;9.10;50.20
11140;DHT22;5624;49.388;11.350;2024-03-23T15:27:56;9.00;50.30
11140;DHT22;5624;49.388;11.350;2024-03-23T15:30:23;8.80;50.10
11140;DHT22;5624;49.388;11.350;2024-03-23T15:32:48;8.70;50.50
11140;DHT22;5624;49.388;11.350;2024-03-23T15:35:14;8.60;51.70
11140;DHT22;5624;49.388;11.350;2024-03-23T15:37:39;8.10;63.80
11140;DHT22;5624;49.388;11.350;2024-03-23T15:40:06;7.00;78.70
11140;DHT22;5624;49.388;11.350;2024-03-23T15:42:32;6.30;86.70
11140;DHT22;5624;49.388;11.350;2024-03-23T15:44:58;5.80;92.90
11140;DHT22;5624;49.388;11.350;2024-03-23T15:47:23;5.60;96.40
11140;DHT22;5624;49.388;11.350;2024-03-23T15:49:49;5.70;98.80
11140;DHT22;5624;49.388;11.350;2024-03-23T15:52:15;6.20;99.90
11140;DHT22;5624;49.388;11.350;2024-03-23T15:54:43;6.50;98.70
11140;DHT22;5624;49.388;11.350;2024-03-23T15:57:08;6.60;96.50
11140;DHT22;5624;49.388;11.350;2024-03-23T15:59:33;6.50;95.30
11140;DHT22;5624;49.388;11.350;2024-03-23T16:01:59;6.30;95.50
11140;DHT22;5624;49.388;11.350;2024-03-23T16:04:24;6.20;95.70
11140;DHT22;5624;49.388;11.350;2024-03-23T16:06:50;6.10;95.10
11140;DHT22;5624;49.388;11.350;2024-03-23T16:09:15;5.90;94.00
11140;DHT22;5624;49.388;11.350;2024-03-23T16:11:41;5.90;92.80
11140;DHT22;5624;49.388;11.350;2024-03-23T16:14:07;5.80;92.70
11140;DHT22;5624;49.388;11.350;2024-03-23T16:16:32;5.70;93.20
11140;DHT22;5624;49.388;11.350;2024-03-23T16:18:58;5.60;92.90
11140;DHT22;5624;49.388;11.350;2024-03-23T16:21:23;5.70;94.10
11140;DHT22;5624;49.388;11.350;2024-03-23T16:23:49;5.70;93.90
11140;DHT22;5624;49.388;11.350;2024-03-23T16:26:14;5.70;93.40
11140;DHT22;5624;49.388;11.350;2024-03-23T16:28:42;5.80;94.10
11140;DHT22;5624;49.388;11.350;2024-03-23T16:31:08;5.90;94.60
11140;DHT22;5624;49.388;11.350;2024-03-23T16:33:35;5.90;93.70
11140;DHT22;5624;49.388;11.350;2024-03-23T16:36:05;5.80;93.80
11140;DHT22;5624;49.388;11.350;2024-03-23T16:38:33;5.50;94.70
11140;DHT22;5624;49.388;11.350;2024-03-23T16:41:07;5.40;95.40
11140;DHT22;5624;49.388;11.350;2024-03-23T16:43:34;5.40;96.20
11140;DHT22;5624;49.388;11.350;2024-03-23T16:46:00;5.40;96.10